Flight Track Log - Related Links

Times and Time Zones

All times are in EDT time to prevent confusion due to time zone crossing. See the UAL4274 flight status page for this flight to view local times or setup timezone preferences in your user account.

Time Position Orientation Groundspeed Altitude Reporting Facility
EDT Latitude Longitude Course Direction KTS MPH feet Rate Location/Type
Mon 07:02:42 PM 32.8333 -96.8333 132° Southeast 164 189 1,500  Level Dallas / Fort Worth TRACON
Mon 07:04:01 PM 32.7833 -96.7667 132° Southeast 232 267 4,300 2,357 Climbing Dallas / Fort Worth TRACON
Mon 07:05:02 PM 32.7167 -96.7333 157° South 248 285 7,000 1,763 Climbing Dallas / Fort Worth TRACON
Mon 07:07:15 PM 32.5542 -96.7750 192° South 289 333 10,000 1,399 Climbing Fort Worth Center
Mon 07:08:15 PM 32.4581 -96.7881 187° South 341 392 11,500 1,500 Climbing Fort Worth Center
Mon 07:09:15 PM 32.3642 -96.8058 189° South 355 409 13,000 1,650 Climbing Fort Worth Center
Mon 07:10:15 PM 32.2683 -96.8089 182° South 349 402 14,800 1,700 Climbing Fort Worth Center
Mon 07:11:15 PM 32.1742 -96.7753 163° South 346 398 16,400 1,600 Climbing Fort Worth Center
Mon 07:12:15 PM 32.0864 -96.7439 163° South 346 398 18,000 1,664 Climbing Fort Worth Center
Mon 07:13:14 PM 31.9964 -96.7103 162° South 341 392 19,700 1,500 Climbing Fort Worth Center
Mon 07:14:15 PM 31.9064 -96.6719 160° South 347 399 21,000 857 Climbing Fort Worth Center
Mon 07:14:45 PM 31.8592 -96.6539 162° South 345 397 21,000  Level Houston Center
Mon 07:15:46 PM 31.7550 -96.6117 161° South 378 435 21,000  Level Houston Center
Mon 07:16:48 PM 31.6478 -96.5669 160° South 398 458 21,000  Level Houston Center
Mon 07:17:50 PM 31.5375 -96.5819 187° South 398 458 21,000  Level Houston Center
Mon 07:18:51 PM 31.4275 -96.5986 187° South 394 453 21,000  Level Houston Center
Mon 07:19:53 PM 31.3347 -96.6164 189° South 346 398 21,000  Level Houston Center
Mon 07:20:54 PM 31.2464 -96.6308 188° South 323 372 21,000  Level Houston Center
Mon 07:21:56 PM 31.1581 -96.6469 189° South 318 366 21,000  Level Houston Center
Mon 07:22:58 PM 31.0714 -96.6250 168° South 333 383 21,000  Level Houston Center
Mon 07:23:59 PM 30.9903 -96.5717 151° Southeast 330 380 21,000 -49 Level Houston Center
Mon 07:25:01 PM 30.9094 -96.5122 148° Southeast 338 389 20,900 -1,122 Descending Houston Center
Mon 07:26:02 PM 30.8208 -96.4464 147° Southeast 368 423 18,700 -2,195 Descending Houston Center
Mon 07:27:04 PM 30.7236 -96.3767 148° Southeast 401 461 16,400 -2,543 Descending Houston Center
Mon 07:28:33 PM 30.5850 -96.2769 148° Southeast 356 410 12,300 -2,634 Descending Houston Center
Mon 07:29:07 PM 30.5394 -96.2439 148° Southeast 349 402 11,000 -1,941 Descending Houston Center
Mon 07:29:41 PM 30.4958 -96.2119 148° Southeast 338 389 10,100 -632 Descending Houston Center
Mon 07:30:42 PM 30.4153 -96.1556 149° Southeast 319 367 10,000 -49 Descending Houston Center
Mon 07:31:43 PM 30.3528 -96.1094 148° Southeast 245 282 10,000  Level Houston Center
Mon 07:32:44 PM 30.2947 -96.0675 148° Southeast 246 283 10,000 49 Level Houston Center
Mon 07:33:45 PM 30.2394 -96.0353 153° Southeast 233 268 10,100 -66 Climbing Houston Center
Mon 07:34:15 PM 30.2094 -96.0372 183° South 243 280 9,900 -290 Descending Houston Center
Mon 07:34:47 PM 30.1706 -96.0406 184° South 233 268 9,800 -581 Descending Houston Center
Mon 07:35:17 PM 30.1464 -96.0419 183° South 228 262 9,300 -984 Descending Houston Center
Mon 07:35:48 PM 30.1058 -96.0456 184° South 231 266 8,800 -1,082 Descending Houston Center
Mon 07:36:18 PM 30.0775 -96.0475 183° South 230 265 8,200 -800 Descending Houston Center
Mon 07:36:48 PM 30.0417 -96.0528 187° South 231 266 8,000 -290 Descending Houston Center
Mon 07:37:20 PM 30.0144 -96.0531 181° South 228 262 7,900 88 Descending Houston Center
Mon 07:37:56 PM 29.9811 -96.0333 153° Southeast 233 268 8,100 -433 Climbing Houston Center
Mon 07:38:57 PM 29.9789 -95.9589 92° East 229 264 7,200 -1,345 Descending Houston Center
Mon 07:39:52 PM 29.9772 -95.8914 92° East 223 257 5,500 -1,500 Descending Houston Center
Mon 07:40:25 PM 29.9764 -95.8619 92° East 223 257 5,000 -448 Descending Houston Center
Mon 07:40:59 PM 29.9744 -95.8122 93° East 219 252 5,000  Level Houston Center
Mon 07:41:54 PM 29.9753 -95.7494 89° East 224 258 5,000 -67 Level Houston Center
Mon 07:42:28 PM 29.9772 -95.7206 86° East 221 254 4,900  Descending Houston Center
Mon 07:43:01 PM 29.9769 -95.6744 90° East 190 219 5,000  Climbing Houston Center
Mon 07:43:56 PM 29.9764 -95.6217 91° East 183 211 4,900 -527 Descending Houston Center
Mon 07:44:32 PM 29.9761 -95.5869 91° East 183 211 4,200 -1,052 Descending Houston Center
Mon 07:45:33 PM 29.9781 -95.5303 88° East 183 211 3,200 -927 Descending Houston Center
Mon 07:46:35 PM 29.9769 -95.4714 91° East 183 211 2,300 -871 Descending Houston Center

Login

Don't have an account? Register now (free) for customized features, flight alerts, and more!